Allendale, MI (49401)

00:09 EST le 23 février 2017 (GMT -0500)
Trail Creek Pass | | Change Station

Alt. 659 ft 43.01 °N, 86.00 °W | Updated 4 seconds ago

Partiellement nuageux
Partiellement nuageux
59.7 ° F
Paraît 59.7 ° F
N
5.4
Vent Variable Vent de Sud
Gusts 10.0 mph

Aujourd'hui
Haut(e) -- | Bas -- ° F
--% Risque de précip.
Hier
Haut(e) -- | Bas -- ° F
Precip. -- pouce
Pression 29.59 pouce
Visibilité 10.0 Miles terrestres
Nuages Ciel dégagé
Point de rosée 56 ° F
Humidité 87%
Précipitations 0.00 pouce
Profondeur de la couche neigeuse Non disponible.
7:28 AM 6:25 PM
Lune descendante, 13% visible
METAR KBIV 230453Z AUTO 21022G29KT 10SM CLR 16/12 A2959 RMK AO2 PK WND 21029/0432 SLP020 T01610122 401830072
Pression 29.59 pouce
Visibilité 10.0 Miles terrestres
Nuages Ciel dégagé
Point de rosée 56 ° F
Humidité 87%
Précipitations 0.00 pouce
Profondeur de la couche neigeuse Non disponible.
7:28 AM 6:25 PM
Lune descendante, 13% visible
METAR KBIV 230453Z AUTO 21022G29KT 10SM CLR 16/12 A2959 RMK AO2 PK WND 21029/0432 SLP020 T01610122 401830072

Get Your Daily Forecast Email!

Thanks for signing up!

Be on the lookout for a verification email in your inbox.

You'll start receiving the daily forecast at 8 AM.

×

10-Day Weather Forecast

Almanac

Astronomie

Feb. 23, 2017 Lever Coucher
Temps réel
Crépuscule civil
Crépuscule nautique
Crépuscule astronomique
Lune
Durée de lumière visible
Longueur du jour
Tomorrow will be .
, % of the Moon is Illuminated

Extrêmes aujourd'hui

State Highs State Lows

Community

WunderPhotos

Upload Photos

1,962,540 Photos téléchargées !

WunderBlog® & News

Nearby

Qualité de l'air

  Qualité de l'air Indice de la qualité de l'air Polluant
Not available.

Épaisseur de neige

Station Depth Altitude

Activité sismique

Ville Distance Mag. Time & Date
Minimum magnitude displayed is 2.5.

Températures des eaux côtières

Lieu Température

Stations

Stations météo à proximité

Emplacement de la station Température Refroidissement éolien Point de rosée Humidité Vent Precip. Alt. Mise à jour Type
                   

Watches & Warnings

There are currently no watches in effect.